createdAt,value
2019-01-06T00:00:18.699Z,4.25
2019-01-06T00:03:12.091Z,3.62
2019-01-06T00:05:54.580Z,4.22
2019-01-06T00:08:41.763Z,4.58
2019-01-06T00:11:42.108Z,4.17
2019-01-06T00:14:34.150Z,3.65
2019-01-06T00:17:21.899Z,4.37
2019-01-06T00:20:13.357Z,4.17
2019-01-06T00:22:54.403Z,3.30
2019-01-06T00:25:43.180Z,5.33
2019-01-06T00:28:31.862Z,3.92
2019-01-06T00:31:26.615Z,3.83
2019-01-06T00:34:16.752Z,3.05
2019-01-06T00:37:08.417Z,3.30
2019-01-06T00:40:06.267Z,2.95
2019-01-06T00:42:44.417Z,3.80
2019-01-06T00:45:41.826Z,3.08
2019-01-06T00:48:29.094Z,3.85
2019-01-06T00:51:32.799Z,4.03
2019-01-06T00:54:20.189Z,5.50
2019-01-06T00:57:07.405Z,4.10
2019-01-06T00:59:55.115Z,4.40
2019-01-06T01:02:58.989Z,4.10
2019-01-06T01:06:03.015Z,4.58
2019-01-06T01:08:50.046Z,4.75
2019-01-06T01:11:37.367Z,4.65
2019-01-06T01:14:24.652Z,4.90
2019-01-06T01:17:11.917Z,3.70
2019-01-06T01:19:59.103Z,7.75
2019-01-06T01:22:46.616Z,5.00
2019-01-06T01:25:41.195Z,4.00
2019-01-06T01:28:28.813Z,4.50
2019-01-06T01:31:23.725Z,4.03
2019-01-06T01:34:18.592Z,4.28
2019-01-06T01:37:05.786Z,5.45
2019-01-06T01:39:54.419Z,4.95
2019-01-06T01:42:45.836Z,4.35
2019-01-06T01:45:33.135Z,4.22
2019-01-06T01:48:23.526Z,4.30
2019-01-06T01:51:18.167Z,4.95
2019-01-06T01:54:09.637Z,4.40
2019-01-06T01:56:57.146Z,4.45
2019-01-06T01:59:51.807Z,4.00
2019-01-06T02:02:49.299Z,4.10
2019-01-06T02:05:36.721Z,4.37
2019-01-06T02:08:31.139Z,5.55
2019-01-06T02:11:35.137Z,4.60
2019-01-06T02:14:26.499Z,3.80
2019-01-06T02:17:30.750Z,4.03
2019-01-06T02:20:19.510Z,3.92
2019-01-06T02:23:06.976Z,4.47
2019-01-06T02:26:13.674Z,4.47
2019-01-06T02:29:17.558Z,4.80
2019-01-06T02:32:03.585Z,4.87
2019-01-06T02:35:01.245Z,4.85
2019-01-06T02:37:58.990Z,4.53
2019-01-06T02:40:46.513Z,4.92
2019-01-06T02:43:32.007Z,4.40
2019-01-06T02:46:23.445Z,4.83
2019-01-06T02:49:12.207Z,4.42
2019-01-06T02:52:07.059Z,4.70
2019-01-06T02:54:53.810Z,4.35
2019-01-06T02:57:40.946Z,3.72
2019-01-06T03:00:44.759Z,4.80
2019-01-06T03:03:45.387Z,5.20
2019-01-06T03:06:43.303Z,5.00
2019-01-06T03:09:44.110Z,3.95
2019-01-06T03:12:31.570Z,4.08
2019-01-06T03:15:18.796Z,3.60
2019-01-06T03:18:06.053Z,4.22
2019-01-06T03:20:53.339Z,4.10
2019-01-06T03:23:56.231Z,4.05
2019-01-06T03:26:43.437Z,3.98
2019-01-06T03:29:30.984Z,3.05
2019-01-06T03:32:18.191Z,3.70
2019-01-06T03:35:05.378Z,3.47
2019-01-06T03:38:05.917Z,4.15
2019-01-06T03:40:54.578Z,4.35
2019-01-06T03:43:41.758Z,3.30
2019-01-06T03:46:33.178Z,4.10
2019-01-06T03:49:24.560Z,3.10
2019-01-06T03:52:28.174Z,5.20
2019-01-06T03:55:19.367Z,4.15
2019-01-06T03:58:17.117Z,3.10
2019-01-06T04:01:21.066Z,4.12
2019-01-06T04:04:24.715Z,4.33
2019-01-06T04:07:16.067Z,3.65
2019-01-06T04:10:03.302Z,3.17
2019-01-06T04:12:50.502Z,3.60
2019-01-06T04:15:40.731Z,3.10
2019-01-06T04:18:29.370Z,3.35
2019-01-06T04:21:16.890Z,3.10
2019-01-06T04:24:09.402Z,3.47
2019-01-06T04:26:56.899Z,2.65
2019-01-06T04:29:45.993Z,3.22
2019-01-06T04:32:40.648Z,2.72
2019-01-06T04:35:26.478Z,3.10
2019-01-06T04:38:27.218Z,2.00
2019-01-06T04:41:33.894Z,3.27
2019-01-06T04:44:21.258Z,2.95
2019-01-06T04:47:18.792Z,2.70
2019-01-06T04:50:16.411Z,3.60
2019-01-06T04:53:14.339Z,2.52
2019-01-06T04:56:01.573Z,2.92
2019-01-06T04:59:03.563Z,3.20
2019-01-06T05:02:07.397Z,3.25
2019-01-06T05:05:08.127Z,3.67
2019-01-06T05:07:56.836Z,2.60
2019-01-06T05:10:57.719Z,3.37
2019-01-06T05:13:55.186Z,3.37
2019-01-06T05:16:42.618Z,2.95
2019-01-06T05:19:37.237Z,3.20
2019-01-06T05:22:17.851Z,2.40
2019-01-06T05:25:12.711Z,3.08
2019-01-06T05:28:01.408Z,2.90
2019-01-06T05:30:48.971Z,2.40
2019-01-06T05:33:36.134Z,2.40
2019-01-06T05:36:33.635Z,2.67
2019-01-06T05:39:34.503Z,2.58
2019-01-06T05:42:25.930Z,3.02
2019-01-06T05:45:14.528Z,2.37
2019-01-06T05:48:09.431Z,2.12
2019-01-06T05:50:57.419Z,3.27
2019-01-06T05:53:44.998Z,2.10
2019-01-06T05:56:32.289Z,2.75
2019-01-06T05:59:33.155Z,2.55
2019-01-06T06:02:20.456Z,2.10
2019-01-06T06:05:07.654Z,1.75
2019-01-06T06:08:05.219Z,2.42
2019-01-06T06:11:08.993Z,2.62
2019-01-06T06:13:57.634Z,2.80
2019-01-06T06:16:44.795Z,2.37
2019-01-06T06:19:44.406Z,1.77
2019-01-06T06:22:31.602Z,2.15
2019-01-06T06:25:18.896Z,1.90
2019-01-06T06:28:25.713Z,1.87
2019-01-06T06:31:17.278Z,2.10
2019-01-06T06:34:21.007Z,2.20
2019-01-06T06:37:18.488Z,2.40
2019-01-06T06:40:06.075Z,2.52
2019-01-06T06:43:12.826Z,2.45
2019-01-06T06:46:00.119Z,2.30
2019-01-06T06:48:47.573Z,2.90
2019-01-06T06:51:45.111Z,2.75
2019-01-06T06:54:42.450Z,3.05
2019-01-06T06:58:15.831Z,2.70
2019-01-06T07:01:15.962Z,3.33
2019-01-06T07:04:07.522Z,2.30
2019-01-06T07:07:02.110Z,2.65
2019-01-06T07:09:56.696Z,2.10
2019-01-06T07:13:03.448Z,2.37
2019-01-06T07:15:54.657Z,3.02
2019-01-06T07:18:57.075Z,2.83
2019-01-06T07:21:51.558Z,2.58
2019-01-06T07:24:38.477Z,3.02
2019-01-06T07:27:37.906Z,2.47
2019-01-06T07:30:25.540Z,2.75
2019-01-06T07:33:26.274Z,2.83
2019-01-06T07:36:29.930Z,2.37
2019-01-06T07:39:13.045Z,2.90
2019-01-06T07:42:04.441Z,3.25
2019-01-06T07:45:11.322Z,2.95
2019-01-06T07:48:18.223Z,3.60
2019-01-06T07:51:22.187Z,3.67
2019-01-06T07:54:10.767Z,3.15
2019-01-06T07:56:54.836Z,2.55
2019-01-06T07:59:40.971Z,3.40
2019-01-06T08:02:31.185Z,3.60
2019-01-06T08:05:18.759Z,2.45
2019-01-06T08:08:10.243Z,2.90
2019-01-06T08:11:00.256Z,3.52
2019-01-06T08:13:43.259Z,2.72
2019-01-06T08:16:35.379Z,3.17
2019-01-06T08:19:30.043Z,3.30
2019-01-06T08:22:15.012Z,3.90
2019-01-06T08:25:12.930Z,2.52
2019-01-06T08:28:12.187Z,3.20
2019-01-06T08:31:06.383Z,2.85
2019-01-06T08:34:03.991Z,2.90
2019-01-06T08:36:51.242Z,3.77
2019-01-06T08:39:41.334Z,2.83
2019-01-06T08:42:33.165Z,3.08
2019-01-06T08:45:31.087Z,3.47
2019-01-06T08:48:22.889Z,3.77
2019-01-06T08:51:10.379Z,4.35
2019-01-06T08:53:58.187Z,3.85
2019-01-06T08:56:54.550Z,4.35
2019-01-06T08:59:42.243Z,5.03
2019-01-06T09:02:30.891Z,4.70
2019-01-06T09:05:18.447Z,5.03
2019-01-06T09:08:13.587Z,3.77
2019-01-06T09:11:21.626Z,4.72
2019-01-06T09:14:06.360Z,3.52
2019-01-06T09:17:10.133Z,4.83
2019-01-06T09:19:57.316Z,4.83
2019-01-06T09:22:44.746Z,4.85
2019-01-06T09:25:41.184Z,6.20
2019-01-06T09:28:32.278Z,4.90
2019-01-06T09:31:20.912Z,5.00
2019-01-06T09:34:08.553Z,5.55
2019-01-06T09:37:06.791Z,5.05
2019-01-06T09:39:55.545Z,4.80
2019-01-06T09:42:56.422Z,4.45
2019-01-06T09:46:00.329Z,3.95
2019-01-06T09:48:47.734Z,4.97
2019-01-06T09:51:54.572Z,6.10
2019-01-06T09:54:49.886Z,5.00
2019-01-06T09:57:37.409Z,6.35
2019-01-06T10:00:26.103Z,4.62
2019-01-06T10:03:14.214Z,3.58
2019-01-06T10:06:05.648Z,3.75
2019-01-06T10:08:52.987Z,2.55
2019-01-06T10:11:44.399Z,3.40
2019-01-06T10:14:33.191Z,3.83
2019-01-06T10:17:39.926Z,3.05
2019-01-06T10:20:31.391Z,3.87
2019-01-06T10:23:22.323Z,2.85
2019-01-06T10:26:10.037Z,2.35
2019-01-06T10:28:58.635Z,1.72
2019-01-06T10:31:53.578Z,2.80
2019-01-06T10:34:40.832Z,3.15
2019-01-06T10:37:28.111Z,2.42
2019-01-06T10:40:22.560Z,2.33
2019-01-06T10:43:09.754Z,2.75
2019-01-06T10:46:13.416Z,2.60
2019-01-06T10:49:02.052Z,2.72
2019-01-06T10:51:49.626Z,3.10
2019-01-06T10:54:37.141Z,2.30
2019-01-06T10:57:25.737Z,2.33
2019-01-06T11:00:32.478Z,3.10
2019-01-06T11:03:26.819Z,3.37
2019-01-06T11:06:18.398Z,3.17
2019-01-06T11:09:05.863Z,3.10
2019-01-06T11:11:53.224Z,3.30
2019-01-06T11:14:50.626Z,3.15
2019-01-06T11:17:38.158Z,3.47
2019-01-06T11:20:25.510Z,3.95
2019-01-06T11:23:20.364Z,3.40
2019-01-06T11:26:18.170Z,3.80
2019-01-06T11:29:04.967Z,4.35
2019-01-06T11:31:56.679Z,4.28
2019-01-06T11:35:03.659Z,4.90
2019-01-06T11:37:50.758Z,3.72
2019-01-06T11:40:38.262Z,3.95
2019-01-06T11:43:25.442Z,4.20
2019-01-06T11:46:29.259Z,4.67
2019-01-06T11:49:17.911Z,3.87
2019-01-06T11:52:08.095Z,4.45
2019-01-06T11:54:59.660Z,5.62
2019-01-06T11:57:54.921Z,3.75
2019-01-06T12:00:46.578Z,2.92
2019-01-06T12:03:35.095Z,3.75
2019-01-06T12:06:36.134Z,3.20
2019-01-06T12:09:26.319Z,3.80
2019-01-06T12:12:13.543Z,4.15
2019-01-06T12:15:02.169Z,5.12
2019-01-06T12:18:00.066Z,4.90
2019-01-06T12:20:48.694Z,5.72
2019-01-06T12:23:37.273Z,5.85
2019-01-06T12:26:24.857Z,5.17
2019-01-06T12:29:16.215Z,3.37
2019-01-06T12:32:14.420Z,4.22
2019-01-06T12:35:01.714Z,4.15
2019-01-06T12:38:08.466Z,4.47
2019-01-06T12:41:03.002Z,4.53
2019-01-06T12:43:50.347Z,4.87
2019-01-06T12:46:37.642Z,4.33
2019-01-06T12:49:24.853Z,4.25
2019-01-06T12:52:12.089Z,3.85
2019-01-06T12:55:06.487Z,3.52
2019-01-06T12:57:58.238Z,2.62
2019-01-06T13:00:46.272Z,4.72
2019-01-06T13:03:35.801Z,3.25
2019-01-06T13:06:23.334Z,3.92
2019-01-06T13:09:11.951Z,2.52
2019-01-06T13:12:16.090Z,4.70
2019-01-06T13:15:03.793Z,3.77
2019-01-06T13:18:01.302Z,3.72
2019-01-06T13:20:48.734Z,3.85
2019-01-06T13:23:52.670Z,3.60
2019-01-06T13:26:41.250Z,3.30
2019-01-06T13:29:45.267Z,3.90
2019-01-06T13:32:43.046Z,4.50
2019-01-06T13:35:49.799Z,3.80
2019-01-06T13:38:34.703Z,3.62
2019-01-06T13:41:19.496Z,4.50
2019-01-06T13:44:06.957Z,4.28
2019-01-06T13:47:01.879Z,4.20
2019-01-06T13:49:49.134Z,4.08
2019-01-06T13:52:39.113Z,5.45
2019-01-06T13:55:30.780Z,3.90
2019-01-06T13:58:18.006Z,4.42
2019-01-06T14:01:21.790Z,4.42
2019-01-06T14:04:10.610Z,3.22
2019-01-06T14:07:11.374Z,3.45
2019-01-06T14:09:58.945Z,4.08
2019-01-06T14:13:05.817Z,3.33
2019-01-06T14:16:03.316Z,3.72
2019-01-06T14:18:50.502Z,5.08
2019-01-06T14:21:53.826Z,4.00
2019-01-06T14:25:00.876Z,4.70
2019-01-06T14:27:49.636Z,4.50
2019-01-06T14:30:36.986Z,4.62
2019-01-06T14:33:24.325Z,4.10
2019-01-06T14:36:31.264Z,3.95
2019-01-06T14:39:31.845Z,4.15
2019-01-06T14:42:22.467Z,4.80
2019-01-06T14:45:17.474Z,5.50
2019-01-06T14:48:14.029Z,6.33
2019-01-06T14:51:20.081Z,6.47
2019-01-06T14:54:07.488Z,6.80
2019-01-06T14:56:56.312Z,6.35
2019-01-06T15:00:00.034Z,6.05
2019-01-06T15:02:47.337Z,6.97
2019-01-06T15:05:35.970Z,6.22
2019-01-06T15:08:27.564Z,5.33
2019-01-06T15:11:22.283Z,6.05
2019-01-06T15:14:26.383Z,5.62
2019-01-06T15:17:25.270Z,6.35
2019-01-06T15:20:14.678Z,6.97
2019-01-06T15:23:01.834Z,6.83
2019-01-06T15:25:49.183Z,6.28
2019-01-06T15:28:44.469Z,7.58
2019-01-06T15:31:28.535Z,6.70
2019-01-06T15:34:32.359Z,6.05
2019-01-06T15:37:19.557Z,6.72
2019-01-06T15:40:06.603Z,7.60
2019-01-06T15:42:53.795Z,9.53
2019-01-06T15:45:42.825Z,10.80
2019-01-06T15:48:40.551Z,8.30
2019-01-06T15:51:27.795Z,9.30
2019-01-06T15:54:20.267Z,9.20
2019-01-06T15:57:15.134Z,10.98
2019-01-06T15:59:59.322Z,10.08
2019-01-06T16:02:46.499Z,11.15
2019-01-06T16:05:41.100Z,12.40
2019-01-06T16:08:35.547Z,10.65
2019-01-06T16:11:33.455Z,11.10
2019-01-06T16:14:20.863Z,10.45
2019-01-06T16:17:13.577Z,9.40
2019-01-06T16:20:03.380Z,8.18
2019-01-06T16:22:55.226Z,9.15
2019-01-06T16:25:42.408Z,11.22
2019-01-06T16:28:31.217Z,10.65
2019-01-06T16:31:21.608Z,9.30
2019-01-06T16:34:09.075Z,9.13
2019-01-06T16:36:56.407Z,8.38
2019-01-06T16:39:43.666Z,11.20
2019-01-06T16:42:36.074Z,13.30
2019-01-06T16:45:23.710Z,11.33
2019-01-06T16:48:15.386Z,10.43
2019-01-06T16:51:09.874Z,8.98
2019-01-06T16:53:57.084Z,6.92
2019-01-06T16:56:43.571Z,8.23
2019-01-06T16:59:34.986Z,7.83
2019-01-06T17:02:23.662Z,6.90
2019-01-06T17:05:10.890Z,7.53
2019-01-06T17:07:58.392Z,8.33
2019-01-06T17:10:53.389Z,8.00
2019-01-06T17:13:51.197Z,8.30
2019-01-06T17:16:38.499Z,8.88
2019-01-06T17:19:33.079Z,7.22
2019-01-06T17:22:20.249Z,8.98
2019-01-06T17:25:14.374Z,8.93
2019-01-06T17:28:15.234Z,6.70
2019-01-06T17:30:55.894Z,7.00
2019-01-06T17:33:43.552Z,6.05
2019-01-06T17:36:35.236Z,5.22
2019-01-06T17:39:40.851Z,6.67
2019-01-06T17:42:44.640Z,6.05
2019-01-06T17:45:33.267Z,6.22
2019-01-06T17:48:20.773Z,7.65
2019-01-06T17:51:12.435Z,5.15
2019-01-06T17:54:00.023Z,6.45
2019-01-06T17:56:49.247Z,4.60
2019-01-06T17:59:37.964Z,6.03
2019-01-06T18:02:24.598Z,7.25
2019-01-06T18:05:22.458Z,5.67
2019-01-06T18:08:09.429Z,4.87
2019-01-06T18:11:12.906Z,5.90
2019-01-06T18:14:00.506Z,4.45
2019-01-06T18:16:52.084Z,5.40
2019-01-06T18:19:55.810Z,5.15
2019-01-06T18:22:42.975Z,6.25
2019-01-06T18:25:25.972Z,5.10
2019-01-06T18:28:13.345Z,6.47
2019-01-06T18:31:13.911Z,6.62
2019-01-06T18:34:04.356Z,4.60
2019-01-06T18:36:58.766Z,5.78
2019-01-06T18:39:45.887Z,6.15
2019-01-06T18:42:37.291Z,5.80
2019-01-06T18:45:20.790Z,6.50
2019-01-06T18:48:09.525Z,5.72
2019-01-06T18:50:56.902Z,5.95
2019-01-06T18:53:45.569Z,6.03
2019-01-06T18:56:37.032Z,5.50
2019-01-06T18:59:24.261Z,6.28
2019-01-06T19:02:12.724Z,6.10
2019-01-06T19:05:01.431Z,6.22
2019-01-06T19:07:45.886Z,8.30
2019-01-06T19:10:43.580Z,7.67
2019-01-06T19:13:41.068Z,7.20
2019-01-06T19:16:28.296Z,6.53
2019-01-06T19:19:15.581Z,7.03
2019-01-06T19:22:02.861Z,7.15
2019-01-06T19:25:09.715Z,6.05
2019-01-06T19:27:58.392Z,6.58
2019-01-06T19:30:45.655Z,7.60
2019-01-06T19:33:40.109Z,8.00
2019-01-06T19:36:34.887Z,6.53
2019-01-06T19:39:24.419Z,5.83
2019-01-06T19:42:12.148Z,6.55
2019-01-06T19:45:16.722Z,7.05
2019-01-06T19:48:04.214Z,6.22
2019-01-06T19:50:58.729Z,6.92
2019-01-06T19:53:53.415Z,5.70
2019-01-06T19:56:37.851Z,7.17
2019-01-06T19:59:29.370Z,6.42
2019-01-06T20:02:17.568Z,6.25
2019-01-06T20:04:59.446Z,7.72
2019-01-06T20:07:54.286Z,7.00
2019-01-06T20:10:55.594Z,6.28
2019-01-06T20:14:01.196Z,6.47
2019-01-06T20:16:50.960Z,7.55
2019-01-06T20:19:39.306Z,6.30
2019-01-06T20:22:28.525Z,8.23
2019-01-06T20:25:17.216Z,6.80
2019-01-06T20:28:05.899Z,7.95
2019-01-06T20:31:03.356Z,7.92
2019-01-06T20:33:50.898Z,7.62
2019-01-06T20:36:38.159Z,7.72
2019-01-06T20:39:39.238Z,8.35
2019-01-06T20:42:26.590Z,7.78
2019-01-06T20:45:29.202Z,7.00
2019-01-06T20:48:16.516Z,8.88
2019-01-06T20:51:03.931Z,8.10
2019-01-06T20:53:58.547Z,8.43
2019-01-06T20:56:59.157Z,8.93
2019-01-06T20:59:47.991Z,8.85
2019-01-06T21:02:36.748Z,8.58
2019-01-06T21:05:19.682Z,8.63
2019-01-06T21:08:02.807Z,8.70
2019-01-06T21:10:52.391Z,10.63
2019-01-06T21:13:47.002Z,8.00
2019-01-06T21:16:47.900Z,9.43
2019-01-06T21:19:35.617Z,9.18
2019-01-06T21:22:20.151Z,7.97
2019-01-06T21:25:11.884Z,8.15
2019-01-06T21:27:59.147Z,8.50
2019-01-06T21:30:59.835Z,9.08
2019-01-06T21:33:48.455Z,11.22
2019-01-06T21:36:40.124Z,8.40
2019-01-06T21:39:27.429Z,9.78
2019-01-06T21:42:14.475Z,7.50
2019-01-06T21:45:00.563Z,7.85
2019-01-06T21:47:47.891Z,8.45
2019-01-06T21:50:41.291Z,7.97
2019-01-06T21:53:32.955Z,6.97
2019-01-06T21:56:20.007Z,7.92
2019-01-06T21:59:07.504Z,8.40
2019-01-06T22:01:55.017Z,8.25
2019-01-06T22:04:55.828Z,7.70
2019-01-06T22:07:43.010Z,9.08
2019-01-06T22:10:31.660Z,8.05
2019-01-06T22:13:26.282Z,8.25
2019-01-06T22:16:21.151Z,7.95
2019-01-06T22:19:08.392Z,7.30
2019-01-06T22:21:55.820Z,8.30
2019-01-06T22:24:44.517Z,8.43
2019-01-06T22:27:32.030Z,8.15
2019-01-06T22:30:38.890Z,7.17
2019-01-06T22:33:42.007Z,8.13
2019-01-06T22:36:30.678Z,7.92
2019-01-06T22:39:11.608Z,8.78
2019-01-06T22:41:59.094Z,8.50
2019-01-06T22:44:56.794Z,7.53
2019-01-06T22:47:44.728Z,8.75
2019-01-06T22:50:33.383Z,7.60
2019-01-06T22:53:25.015Z,8.90
2019-01-06T22:56:12.523Z,9.53
2019-01-06T22:58:59.725Z,9.20
2019-01-06T23:01:51.370Z,7.53
2019-01-06T23:04:39.942Z,8.30
2019-01-06T23:07:46.799Z,8.20
2019-01-06T23:10:33.975Z,9.28
2019-01-06T23:13:19.515Z,7.87
2019-01-06T23:16:17.146Z,7.03
2019-01-06T23:19:05.777Z,8.18
2019-01-06T23:21:53.098Z,8.03
2019-01-06T23:24:50.780Z,8.75
2019-01-06T23:27:30.247Z,8.10
2019-01-06T23:30:34.148Z,7.47
2019-01-06T23:33:25.582Z,8.33
2019-01-06T23:36:13.095Z,11.45
2019-01-06T23:39:01.788Z,10.82
2019-01-06T23:41:50.413Z,11.57
2019-01-06T23:44:39.111Z,10.70
2019-01-06T23:47:27.747Z,12.65
2019-01-06T23:50:16.341Z,14.07
2019-01-06T23:53:03.969Z,13.88
2019-01-06T23:55:51.133Z,14.68
2019-01-06T23:58:38.301Z,13.60
